»·PEaware :: N815M KSNA-KAVX

N815M :: KSNA-KAVX

FLIGHT INFORMATION

Flight Status: Arrived
Operator: Privately registered:
United States
More flights under this callsign
Pilot: Robert C. (30425)
Aircraft: BEECH AIRCRAFT DEBONAIR BONANZA
(BE33)
More flights by this aircraft type
Origin: KSNA John Wayne-Orange Co
United States
Destination: KAVX Catalina
United States
More flights between these airports :: More routes between these airports
Route: SLI V21 SXC
File this flight plan on PilotEdge
Remarks:
Altitude:
(Current/Filed)
4,000ft
Speed:
(Current/Filed)
150kts
Departed: 03-Oct-20 08:17 AM
Arrived: 03-Oct-20 08:45 AM
Distance/Time
Traveled:
32nm/0:27
Distance/Time
To Go:
Arrived

Flight Plot

Page will automatically refresh every two minutes.


Map Options




Map Legend


Flown Route
Filed Route
Departure Airport
Arrival Airport
Navaid (VOR, NDB)
Fix

Horizontal Profiles

Position Reports

Time Latitude Longitude Heading Altitude Ground
Speed
03-Oct-20 07:50 33.676084 -117.870905 219 60ft 0kts
03-Oct-20 07:51 33.676084 -117.870905 219 60ft 0kts
03-Oct-20 07:52 33.676084 -117.870905 219 60ft 0kts
03-Oct-20 07:53 33.676084 -117.870905 219 60ft 0kts
03-Oct-20 07:54 33.676084 -117.870905 219 60ft 0kts
03-Oct-20 07:55 33.676084 -117.870905 219 60ft 0kts
03-Oct-20 07:56 33.676084 -117.870905 219 60ft 0kts
03-Oct-20 07:57 33.676084 -117.870905 219 60ft 0kts
03-Oct-20 07:58 33.676084 -117.870905 219 60ft 0kts
03-Oct-20 07:59 33.676084 -117.870905 219 60ft 0kts
03-Oct-20 08:00 33.676084 -117.870905 219 60ft 0kts
03-Oct-20 08:01 33.676084 -117.870905 219 60ft 0kts
03-Oct-20 08:02 33.676084 -117.870905 219 60ft 0kts
03-Oct-20 08:03 33.676084 -117.870905 219 60ft 0kts
03-Oct-20 08:04 33.676084 -117.870905 219 60ft 0kts
03-Oct-20 08:05 33.676084 -117.870905 219 60ft 0kts
03-Oct-20 08:06 33.676084 -117.870905 219 60ft 0kts
03-Oct-20 08:07 33.676084 -117.870905 219 60ft 0kts
03-Oct-20 08:08 33.676084 -117.870905 219 60ft 0kts
03-Oct-20 08:09 33.676084 -117.870905 219 60ft 0kts
03-Oct-20 08:10 33.675728 -117.870392 78 60ft 2kts
03-Oct-20 08:11 33.677763 -117.869040 26 60ft 13kts
03-Oct-20 08:12 33.681237 -117.866745 91 60ft 11kts
03-Oct-20 08:13 33.681214 -117.866611 114 60ft 0kts
03-Oct-20 08:14 33.681214 -117.866611 114 60ft 0kts
03-Oct-20 08:15 33.680651 -117.865776 186 60ft 10kts
03-Oct-20 08:16 33.660756 -117.879347 231 474ft 117kts
03-Oct-20 08:17 33.637437 -117.916653 232 1255ft 139kts
03-Oct-20 08:18 33.612192 -117.957040 231 2032ft 141kts
03-Oct-20 08:19 33.586620 -117.996811 232 3006ft 132kts
03-Oct-20 08:20 33.563669 -118.034759 239 3933ft 130kts
03-Oct-20 08:21 33.540120 -118.083154 240 3962ft 158kts
03-Oct-20 08:22 33.517920 -118.128605 240 3964ft 129kts
03-Oct-20 08:23 33.498168 -118.168985 240 3977ft 123kts
03-Oct-20 08:24 33.479373 -118.207393 240 3988ft 128kts
03-Oct-20 08:25 33.460694 -118.245527 240 3997ft 130kts
03-Oct-20 08:26 33.441977 -118.283685 240 4007ft 131kts
03-Oct-20 08:27 33.422731 -118.322885 239 4017ft 132kts
03-Oct-20 08:28 33.404405 -118.360136 239 4018ft 133kts
03-Oct-20 08:29 33.383837 -118.401927 239 4018ft 133kts
03-Oct-20 08:30 33.404993 -118.418772 16 4013ft 130kts
03-Oct-20 08:31 33.441579 -118.410378 7 4018ft 131kts
03-Oct-20 08:32 33.478819 -118.406231 3 4018ft 131kts
03-Oct-20 08:33 33.516306 -118.403267 3 4008ft 132kts
03-Oct-20 08:34 33.550802 -118.421647 321 3783ft 149kts
03-Oct-20 08:35 33.584177 -118.455973 319 3482ft 149kts
03-Oct-20 08:36 33.613898 -118.461929 83 3274ft 133kts
03-Oct-20 08:37 33.591940 -118.425339 136 2898ft 139kts
03-Oct-20 08:38 33.558289 -118.401417 176 2487ft 142kts
03-Oct-20 08:39 33.518802 -118.402941 183 2313ft 130kts
03-Oct-20 08:40 33.484720 -118.405583 183 2303ft 96kts
03-Oct-20 08:41 33.457051 -118.408699 191 2286ft 107kts
03-Oct-20 08:42 33.427846 -118.399861 167 2042ft 103kts
03-Oct-20 08:43 33.405907 -118.414216 233 1574ft 62kts
03-Oct-20 08:44 33.403664 -118.415116 69 1588ft 8kts
03-Oct-20 08:45 33.403701 -118.415008 65 1588ft 0kts
03-Oct-20 08:46 33.403701 -118.415008 65 1588ft 0kts
03-Oct-20 08:47 33.403701 -118.415009 65 1588ft 0kts

Navigation Log

Ident Type
Flight plan parsing failed, navigation log unavailable